createdAt,value
2022-08-26T00:01:31.282Z,23.89
2022-08-26T00:03:58.824Z,23.98
2022-08-26T00:06:26.216Z,24.05
2022-08-26T00:08:53.339Z,23.97
2022-08-26T00:11:26.599Z,23.86
2022-08-26T00:13:55.258Z,23.72
2022-08-26T00:16:25.477Z,23.78
2022-08-26T00:18:53.084Z,23.78
2022-08-26T00:21:20.071Z,23.78
2022-08-26T00:23:47.164Z,23.68
2022-08-26T00:26:14.214Z,23.24
2022-08-26T00:28:41.409Z,22.98
2022-08-26T00:31:11.149Z,22.25
2022-08-26T00:33:39.735Z,21.83
2022-08-26T00:36:07.423Z,22.52
2022-08-26T00:38:37.861Z,22.83
2022-08-26T00:41:06.551Z,23.22
2022-08-26T00:43:46.199Z,23.51
2022-08-26T00:46:21.569Z,23.59
2022-08-26T00:48:53.763Z,23.69
2022-08-26T00:51:24.779Z,23.75
2022-08-26T00:54:02.003Z,23.73
2022-08-26T00:56:38.258Z,23.79
2022-08-26T00:59:08.016Z,23.63
2022-08-26T01:01:36.253Z,23.43
2022-08-26T01:04:03.270Z,23.27
2022-08-26T01:06:31.216Z,23.32
2022-08-26T01:08:58.073Z,22.91
2022-08-26T01:11:26.324Z,23.05
2022-08-26T01:13:56.022Z,23.34
2022-08-26T01:16:24.856Z,23.39
2022-08-26T01:18:58.488Z,23.32
2022-08-26T01:21:36.324Z,23.27
2022-08-26T01:24:10.328Z,23.34
2022-08-26T01:26:41.201Z,23.43
2022-08-26T01:29:15.853Z,23.54
2022-08-26T01:31:49.487Z,23.47
2022-08-26T01:34:21.768Z,23.19
2022-08-26T01:36:51.625Z,23.02
2022-08-26T01:39:19.519Z,22.93
2022-08-26T01:41:47.477Z,22.84
2022-08-26T01:44:24.367Z,22.88
2022-08-26T01:46:52.961Z,22.74
2022-08-26T01:49:20.792Z,22.17
2022-08-26T01:51:51.489Z,22.20
2022-08-26T01:54:20.523Z,22.16
2022-08-26T01:56:51.317Z,21.96
2022-08-26T01:59:20.177Z,22.34
2022-08-26T02:01:48.803Z,22.46
2022-08-26T02:04:27.280Z,22.39
2022-08-26T02:06:56.412Z,22.29
2022-08-26T02:09:24.466Z,22.07
2022-08-26T02:11:52.665Z,22.16
2022-08-26T02:14:26.830Z,22.00
2022-08-26T02:16:55.115Z,22.11
2022-08-26T02:19:34.348Z,22.14
2022-08-26T02:22:04.710Z,22.30
2022-08-26T02:24:51.797Z,22.55
2022-08-26T02:27:32.371Z,22.68
2022-08-26T02:30:15.297Z,22.57
2022-08-26T02:32:44.191Z,22.55
2022-08-26T02:35:13.543Z,22.60
2022-08-26T02:37:45.048Z,22.46
2022-08-26T02:40:15.274Z,22.41
2022-08-26T02:42:42.510Z,22.54
2022-08-26T02:45:10.573Z,22.62
2022-08-26T02:47:37.389Z,22.53
2022-08-26T02:50:05.082Z,22.55
2022-08-26T02:52:32.326Z,22.53
2022-08-26T02:54:58.973Z,22.55
2022-08-26T02:57:26.350Z,22.69
2022-08-26T02:59:53.004Z,22.71
2022-08-26T03:02:19.744Z,22.76
2022-08-26T03:04:58.056Z,22.65
2022-08-26T03:07:30.058Z,22.63
2022-08-26T03:09:57.247Z,22.49
2022-08-26T03:12:24.252Z,22.47
2022-08-26T03:14:52.705Z,22.13
2022-08-26T03:17:19.666Z,21.89
2022-08-26T03:19:46.328Z,22.09
2022-08-26T03:22:14.541Z,22.19
2022-08-26T03:24:41.486Z,22.20
2022-08-26T03:27:13.186Z,22.38
2022-08-26T03:29:59.797Z,22.33
2022-08-26T03:32:27.115Z,22.19
2022-08-26T03:34:54.467Z,22.10
2022-08-26T03:37:21.497Z,22.05
2022-08-26T03:39:48.874Z,22.06
2022-08-26T03:42:16.041Z,22.13
2022-08-26T03:44:42.949Z,22.10
2022-08-26T03:47:10.835Z,21.99
2022-08-26T03:49:37.902Z,21.99
2022-08-26T03:52:05.032Z,21.97
2022-08-26T03:54:32.829Z,22.01
2022-08-26T03:56:59.669Z,22.17
2022-08-26T03:59:26.865Z,22.25
2022-08-26T04:01:54.772Z,22.02
2022-08-26T04:04:22.767Z,21.82
2022-08-26T04:06:57.490Z,21.52
2022-08-26T04:09:24.458Z,21.40
2022-08-26T04:11:51.658Z,21.39
2022-08-26T04:14:20.960Z,21.39
2022-08-26T04:16:48.534Z,21.32
2022-08-26T04:19:16.548Z,21.39
2022-08-26T04:21:45.032Z,21.43
2022-08-26T04:24:15.450Z,21.48
2022-08-26T04:26:43.690Z,21.45
2022-08-26T04:29:18.056Z,21.39
2022-08-26T04:31:45.337Z,21.33
2022-08-26T04:34:12.276Z,21.45
2022-08-26T04:36:42.963Z,21.42
2022-08-26T04:39:12.464Z,21.51
2022-08-26T04:41:39.468Z,21.52
2022-08-26T04:44:07.692Z,21.63
2022-08-26T04:46:34.976Z,21.61
2022-08-26T04:49:02.301Z,21.59
2022-08-26T04:51:29.182Z,21.46
2022-08-26T04:53:57.566Z,21.40
2022-08-26T04:56:26.029Z,21.44
2022-08-26T04:58:52.781Z,21.39
2022-08-26T05:01:20.571Z,21.44
2022-08-26T05:03:48.904Z,21.44
2022-08-26T05:06:16.652Z,21.45
2022-08-26T05:08:45.889Z,21.27
2022-08-26T05:11:13.433Z,21.30
2022-08-26T05:13:40.315Z,21.32
2022-08-26T05:16:11.565Z,21.38
2022-08-26T05:18:39.768Z,21.50
2022-08-26T05:21:07.143Z,21.60
2022-08-26T05:23:36.209Z,21.49
2022-08-26T05:26:07.969Z,21.47
2022-08-26T05:28:35.592Z,21.49
2022-08-26T05:31:12.363Z,21.51
2022-08-26T05:33:41.340Z,21.54
2022-08-26T05:36:15.076Z,21.58
2022-08-26T05:38:42.593Z,21.55
2022-08-26T05:41:19.043Z,21.53
2022-08-26T05:43:45.706Z,21.62
2022-08-26T05:46:12.883Z,21.60
2022-08-26T05:48:39.829Z,21.60
2022-08-26T05:51:12.498Z,21.61
2022-08-26T05:53:43.986Z,21.54
2022-08-26T05:56:27.579Z,21.44
2022-08-26T05:58:56.355Z,21.52
2022-08-26T06:01:27.224Z,21.58
2022-08-26T06:03:59.749Z,21.34
2022-08-26T06:06:32.852Z,21.31
2022-08-26T06:09:01.735Z,21.35
2022-08-26T06:11:32.052Z,21.29
2022-08-26T06:14:03.846Z,21.32
2022-08-26T06:16:34.523Z,21.48
2022-08-26T06:19:03.045Z,21.69
2022-08-26T06:21:33.178Z,21.68
2022-08-26T06:24:22.082Z,21.88
2022-08-26T06:26:58.110Z,21.71
2022-08-26T06:29:26.127Z,21.63
2022-08-26T06:31:56.127Z,21.52
2022-08-26T06:34:26.631Z,21.41
2022-08-26T06:36:58.625Z,21.53
2022-08-26T06:39:25.521Z,21.56
2022-08-26T06:41:52.347Z,21.59
2022-08-26T06:44:19.361Z,21.59
2022-08-26T06:46:46.407Z,21.51
2022-08-26T06:49:17.617Z,21.51
2022-08-26T06:51:44.429Z,21.49
2022-08-26T06:54:11.420Z,21.42
2022-08-26T06:56:43.755Z,21.40
2022-08-26T06:59:12.085Z,21.50
2022-08-26T07:01:44.500Z,21.69
2022-08-26T07:04:14.572Z,21.85
2022-08-26T07:06:48.713Z,21.95
2022-08-26T07:09:17.118Z,21.84
2022-08-26T07:11:44.909Z,21.82
2022-08-26T07:14:12.193Z,21.94
2022-08-26T07:16:41.062Z,21.96
2022-08-26T07:19:11.078Z,21.94
2022-08-26T07:21:41.416Z,21.76
2022-08-26T07:24:10.962Z,21.78
2022-08-26T07:26:39.202Z,21.79
2022-08-26T07:29:12.327Z,21.78
2022-08-26T07:31:42.442Z,21.94
2022-08-26T07:34:13.530Z,21.90
2022-08-26T07:36:41.316Z,21.82
2022-08-26T07:39:08.836Z,21.95
2022-08-26T07:41:36.589Z,21.94
2022-08-26T07:44:03.622Z,21.99
2022-08-26T07:46:31.559Z,22.07
2022-08-26T07:48:58.980Z,22.01
2022-08-26T07:51:27.151Z,22.18
2022-08-26T07:53:55.203Z,22.02
2022-08-26T07:56:23.161Z,21.91
2022-08-26T07:58:53.833Z,21.87
2022-08-26T08:01:23.693Z,21.90
2022-08-26T08:03:52.264Z,21.93
2022-08-26T08:06:21.924Z,21.90
2022-08-26T08:08:50.859Z,21.94
2022-08-26T08:11:22.636Z,22.14
2022-08-26T08:13:55.916Z,22.01
2022-08-26T08:16:32.372Z,21.84
2022-08-26T08:19:00.406Z,21.89
2022-08-26T08:21:27.566Z,21.92
2022-08-26T08:23:57.262Z,21.90
2022-08-26T08:26:25.346Z,21.85
2022-08-26T08:28:56.778Z,22.05
2022-08-26T08:34:14.333Z,22.08
2022-08-26T08:36:42.158Z,21.96
2022-08-26T08:39:09.492Z,22.02
2022-08-26T08:41:46.452Z,22.09
2022-08-26T08:44:19.850Z,22.18
2022-08-26T08:47:01.317Z,22.00
2022-08-26T08:49:29.238Z,22.01
2022-08-26T08:52:05.190Z,22.20
2022-08-26T08:54:32.717Z,22.20
2022-08-26T08:57:12.776Z,22.29
2022-08-26T08:59:53.322Z,22.18
2022-08-26T09:02:31.174Z,22.07
2022-08-26T09:05:02.665Z,22.13
2022-08-26T09:07:50.393Z,22.11
2022-08-26T09:10:37.497Z,21.98
2022-08-26T09:13:13.710Z,22.02
2022-08-26T09:16:00.681Z,22.14
2022-08-26T09:19:04.527Z,22.19
2022-08-26T09:21:32.347Z,22.18
2022-08-26T09:24:00.077Z,22.18
2022-08-26T09:26:30.964Z,22.29
2022-08-26T09:29:02.087Z,22.44
2022-08-26T09:31:31.590Z,22.56
2022-08-26T09:34:17.170Z,22.70
2022-08-26T09:36:55.694Z,22.65
2022-08-26T09:39:28.351Z,22.54
2022-08-26T09:42:12.737Z,22.65
2022-08-26T09:45:03.548Z,22.60
2022-08-26T09:47:39.166Z,22.49
2022-08-26T09:50:36.435Z,22.43
2022-08-26T09:53:20.995Z,22.50
2022-08-26T09:56:33.598Z,22.58
2022-08-26T09:59:01.716Z,22.68
2022-08-26T10:01:33.285Z,22.67
2022-08-26T10:04:10.979Z,22.70
2022-08-26T10:06:54.352Z,22.67
2022-08-26T10:09:23.597Z,22.63
2022-08-26T10:11:53.851Z,22.55
2022-08-26T10:14:29.723Z,22.42
2022-08-26T10:17:11.241Z,22.37
2022-08-26T10:19:56.986Z,22.41
2022-08-26T10:22:28.601Z,22.45
2022-08-26T10:25:00.572Z,22.39
2022-08-26T10:27:59.273Z,22.47
2022-08-26T10:30:33.500Z,22.63
2022-08-26T10:33:12.397Z,22.66
2022-08-26T10:35:51.886Z,22.68
2022-08-26T10:38:25.536Z,22.69
2022-08-26T10:41:09.760Z,22.70
2022-08-26T10:43:42.724Z,22.61
2022-08-26T10:46:18.763Z,22.73
2022-08-26T10:48:48.286Z,22.78
2022-08-26T10:51:23.086Z,22.64
2022-08-26T10:53:58.615Z,22.60
2022-08-26T10:56:43.398Z,22.74
2022-08-26T10:59:16.192Z,22.96
2022-08-26T11:02:08.599Z,22.98
2022-08-26T11:04:54.940Z,22.95
2022-08-26T11:07:41.705Z,23.11
2022-08-26T11:10:12.824Z,23.08
2022-08-26T11:12:39.534Z,22.94
2022-08-26T11:15:10.911Z,22.91
2022-08-26T11:17:55.282Z,22.86
2022-08-26T11:20:54.406Z,22.95
2022-08-26T11:23:22.294Z,23.05
2022-08-26T11:26:01.020Z,23.21
2022-08-26T11:28:40.417Z,23.25
2022-08-26T11:31:18.355Z,23.42
2022-08-26T11:34:03.951Z,23.59
2022-08-26T11:36:41.476Z,23.61
2022-08-26T11:39:30.994Z,23.40
2022-08-26T11:42:16.031Z,23.33
2022-08-26T11:44:49.172Z,23.22
2022-08-26T11:47:25.125Z,23.13
2022-08-26T11:50:05.969Z,23.13
2022-08-26T11:52:32.699Z,23.16
2022-08-26T11:55:14.637Z,23.15
2022-08-26T11:57:47.621Z,23.19
2022-08-26T12:00:24.228Z,23.37
2022-08-26T12:02:52.473Z,23.52
2022-08-26T12:05:30.840Z,23.64
2022-08-26T12:08:06.262Z,23.41
2022-08-26T12:10:34.553Z,23.24
2022-08-26T12:13:03.272Z,23.00
2022-08-26T12:15:32.221Z,22.91
2022-08-26T12:18:17.343Z,22.86
2022-08-26T12:20:54.051Z,23.01
2022-08-26T12:23:46.803Z,23.04
2022-08-26T12:26:32.318Z,23.05
2022-08-26T12:29:26.565Z,23.10
2022-08-26T12:32:13.433Z,22.98
2022-08-26T12:34:42.555Z,23.08
2022-08-26T12:37:12.196Z,23.06
2022-08-26T12:39:42.656Z,23.17
2022-08-26T12:42:12.147Z,23.27
2022-08-26T12:44:58.372Z,23.42
2022-08-26T12:47:41.804Z,23.59
2022-08-26T12:50:23.884Z,23.59
2022-08-26T12:52:58.860Z,23.69
2022-08-26T12:55:50.912Z,23.69
2022-08-26T12:58:36.033Z,23.70
2022-08-26T13:01:08.818Z,23.65
2022-08-26T13:03:38.475Z,23.77
2022-08-26T13:06:32.451Z,23.65
2022-08-26T13:09:06.449Z,23.63
2022-08-26T13:11:33.270Z,23.53
2022-08-26T13:14:06.887Z,23.53
2022-08-26T13:16:34.882Z,23.50
2022-08-26T13:19:05.313Z,23.44
2022-08-26T13:21:37.525Z,23.68
2022-08-26T13:24:11.733Z,23.56
2022-08-26T13:26:40.020Z,23.45
2022-08-26T13:29:10.197Z,23.35
2022-08-26T13:31:40.063Z,23.26
2022-08-26T13:34:09.239Z,23.25
2022-08-26T13:36:36.133Z,23.31
2022-08-26T13:39:03.783Z,23.45
2022-08-26T13:41:31.927Z,23.36
2022-08-26T13:43:59.400Z,23.35
2022-08-26T13:46:27.114Z,23.33
2022-08-26T13:48:54.503Z,23.47
2022-08-26T13:51:22.661Z,23.55
2022-08-26T13:53:50.824Z,23.73
2022-08-26T13:56:18.710Z,23.68
2022-08-26T13:58:46.566Z,23.62
2022-08-26T14:01:15.569Z,23.69
2022-08-26T14:03:42.736Z,23.76
2022-08-26T14:06:09.967Z,23.84
2022-08-26T14:08:38.149Z,23.69
2022-08-26T14:11:05.003Z,23.67
2022-08-26T14:13:31.683Z,23.73
2022-08-26T14:16:01.309Z,23.65
2022-08-26T14:18:33.309Z,23.63
2022-08-26T14:21:00.579Z,23.45
2022-08-26T14:23:27.549Z,23.29
2022-08-26T14:25:54.516Z,23.19
2022-08-26T14:28:21.242Z,23.06
2022-08-26T14:30:53.075Z,23.01
2022-08-26T14:33:25.550Z,23.07
2022-08-26T14:35:52.958Z,23.13
2022-08-26T14:38:19.516Z,23.16
2022-08-26T14:40:46.171Z,22.96
2022-08-26T14:43:15.289Z,23.05
2022-08-26T14:45:44.152Z,22.95
2022-08-26T14:48:10.957Z,23.03
2022-08-26T14:50:38.218Z,23.10
2022-08-26T14:53:23.482Z,22.98
2022-08-26T14:55:50.479Z,22.91
2022-08-26T14:58:17.164Z,23.00
2022-08-26T15:00:43.953Z,22.96
2022-08-26T15:03:10.666Z,22.89
2022-08-26T15:05:38.095Z,22.94
2022-08-26T15:08:10.142Z,22.98
2022-08-26T15:10:37.525Z,22.93
2022-08-26T15:13:04.640Z,22.83
2022-08-26T15:15:31.449Z,22.77
2022-08-26T15:17:58.196Z,22.67
2022-08-26T15:20:25.025Z,22.56
2022-08-26T15:22:51.757Z,22.59
2022-08-26T15:25:20.180Z,22.72
2022-08-26T15:27:47.144Z,22.99
2022-08-26T15:30:14.005Z,22.86
2022-08-26T15:32:40.683Z,22.89
2022-08-26T15:35:09.329Z,22.93
2022-08-26T15:37:36.533Z,22.87
2022-08-26T15:40:04.615Z,22.96
2022-08-26T15:42:31.387Z,22.88
2022-08-26T15:44:58.023Z,22.83
2022-08-26T15:47:24.891Z,22.70
2022-08-26T15:49:51.543Z,22.59
2022-08-26T15:52:18.343Z,22.51
2022-08-26T15:54:45.072Z,22.51
2022-08-26T15:57:13.604Z,22.55
2022-08-26T15:59:42.037Z,22.53
2022-08-26T16:02:09.546Z,22.41
2022-08-26T16:04:36.410Z,22.52
2022-08-26T16:07:04.318Z,22.66
2022-08-26T16:09:31.019Z,22.61
2022-08-26T16:11:58.067Z,22.60
2022-08-26T16:14:25.454Z,22.69
2022-08-26T16:16:52.331Z,22.68
2022-08-26T16:19:20.015Z,22.82
2022-08-26T16:21:47.197Z,22.98
2022-08-26T16:24:14.421Z,23.10
2022-08-26T16:26:42.664Z,23.08
2022-08-26T16:29:12.695Z,23.04
2022-08-26T16:31:39.487Z,22.90
2022-08-26T16:34:07.668Z,22.83
2022-08-26T16:36:36.574Z,22.86
2022-08-26T16:39:04.849Z,22.86
2022-08-26T16:41:31.952Z,22.83
2022-08-26T16:43:59.072Z,22.87
2022-08-26T16:46:27.822Z,22.79
2022-08-26T16:48:56.229Z,22.72
2022-08-26T16:51:24.842Z,22.77
2022-08-26T16:53:51.756Z,22.89
2022-08-26T16:56:21.472Z,22.82
2022-08-26T16:58:48.537Z,22.89
2022-08-26T17:01:16.214Z,23.05
2022-08-26T17:03:42.954Z,23.04
2022-08-26T17:06:09.887Z,23.02
2022-08-26T17:08:38.511Z,22.88
2022-08-26T17:11:05.669Z,22.88
2022-08-26T17:13:35.737Z,22.92
2022-08-26T17:16:05.217Z,22.85
2022-08-26T17:18:32.708Z,22.76
2022-08-26T17:21:05.240Z,22.84
2022-08-26T17:23:32.003Z,22.88
2022-08-26T17:25:58.599Z,22.51
2022-08-26T17:28:25.447Z,22.60
2022-08-26T17:30:52.110Z,22.77
2022-08-26T17:33:22.047Z,22.82
2022-08-26T17:35:51.689Z,22.82
2022-08-26T17:38:18.379Z,22.80
2022-08-26T17:40:45.221Z,22.80
2022-08-26T17:43:12.546Z,22.80
2022-08-26T17:45:40.387Z,22.83
2022-08-26T17:48:08.092Z,22.86
2022-08-26T17:50:35.209Z,22.86
2022-08-26T17:53:01.869Z,22.68
2022-08-26T17:55:29.089Z,22.61
2022-08-26T17:57:55.828Z,22.71
2022-08-26T18:00:27.996Z,22.77
2022-08-26T18:02:55.502Z,22.83
2022-08-26T18:05:22.750Z,22.65
2022-08-26T18:07:49.795Z,22.49
2022-08-26T18:10:18.949Z,22.51
2022-08-26T18:12:46.456Z,22.56
2022-08-26T18:15:15.652Z,22.52
2022-08-26T18:17:43.855Z,22.15
2022-08-26T18:20:14.027Z,21.99
2022-08-26T18:22:40.988Z,22.06
2022-08-26T18:25:08.421Z,22.16
2022-08-26T18:27:36.652Z,22.14
2022-08-26T18:30:13.399Z,22.31
2022-08-26T18:32:42.730Z,22.36
2022-08-26T18:35:10.312Z,22.39
2022-08-26T18:37:37.419Z,22.34
2022-08-26T18:40:07.046Z,22.34
2022-08-26T18:42:34.026Z,22.34
2022-08-26T18:45:00.803Z,22.16
2022-08-26T18:47:27.692Z,22.05
2022-08-26T18:49:54.779Z,21.95
2022-08-26T18:52:21.442Z,22.08
2022-08-26T18:54:50.434Z,22.21
2022-08-26T18:57:17.256Z,22.20
2022-08-26T18:59:43.948Z,22.19
2022-08-26T19:02:11.022Z,21.92
2022-08-26T19:04:40.964Z,22.04
2022-08-26T19:07:08.317Z,22.02
2022-08-26T19:09:35.999Z,22.08
2022-08-26T19:12:03.684Z,22.18
2022-08-26T19:14:31.138Z,22.36
2022-08-26T19:16:57.892Z,22.30
2022-08-26T19:19:24.547Z,22.38
2022-08-26T19:21:51.780Z,22.28
2022-08-26T19:24:19.559Z,22.24
2022-08-26T19:26:57.587Z,22.14
2022-08-26T19:29:33.861Z,22.21
2022-08-26T19:32:01.877Z,22.19
2022-08-26T19:34:29.518Z,22.28
2022-08-26T19:36:58.273Z,22.01
2022-08-26T19:39:26.121Z,21.94
2022-08-26T19:41:53.461Z,21.93
2022-08-26T19:44:41.069Z,21.85
2022-08-26T19:47:10.264Z,21.65
2022-08-26T19:49:37.767Z,21.51
2022-08-26T19:52:05.920Z,21.47
2022-08-26T19:54:32.824Z,21.43
2022-08-26T19:56:59.429Z,21.39
2022-08-26T19:59:26.163Z,21.39
2022-08-26T20:02:01.234Z,21.48
2022-08-26T20:04:32.576Z,21.58
2022-08-26T20:07:01.017Z,21.65
2022-08-26T20:09:34.035Z,21.56
2022-08-26T20:12:02.695Z,21.49
2022-08-26T20:14:30.639Z,21.45
2022-08-26T20:16:57.996Z,21.42
2022-08-26T20:19:43.600Z,21.14
2022-08-26T20:22:11.869Z,20.96
2022-08-26T20:24:38.712Z,21.15
2022-08-26T20:27:07.896Z,21.38
2022-08-26T20:29:36.825Z,21.44
2022-08-26T20:32:06.173Z,21.56
2022-08-26T20:34:34.180Z,21.56
2022-08-26T20:37:01.599Z,21.62
2022-08-26T20:39:29.565Z,21.37
2022-08-26T20:41:57.768Z,21.39
2022-08-26T20:44:25.505Z,21.51
2022-08-26T20:46:52.239Z,21.36
2022-08-26T20:49:19.305Z,21.40
2022-08-26T20:51:50.692Z,21.35
2022-08-26T20:54:19.086Z,21.26
2022-08-26T20:56:46.163Z,21.22
2022-08-26T20:59:14.096Z,21.16
2022-08-26T21:01:42.566Z,21.23
2022-08-26T21:04:13.749Z,21.37
2022-08-26T21:06:43.777Z,21.43
2022-08-26T21:09:18.298Z,21.34
2022-08-26T21:11:45.134Z,21.22
2022-08-26T21:14:16.862Z,21.22
2022-08-26T21:16:45.634Z,21.04
2022-08-26T21:19:15.821Z,20.84
2022-08-26T21:21:44.582Z,20.75
2022-08-26T21:24:11.373Z,20.86
2022-08-26T21:26:38.369Z,20.87
2022-08-26T21:29:07.767Z,20.90
2022-08-26T21:31:34.939Z,20.89
2022-08-26T21:34:01.714Z,20.87
2022-08-26T21:36:28.753Z,20.73
2022-08-26T21:38:57.120Z,20.60
2022-08-26T21:41:25.304Z,20.71
2022-08-26T21:43:55.193Z,20.75
2022-08-26T21:46:23.646Z,20.68
2022-08-26T21:49:02.206Z,20.65
2022-08-26T21:51:32.122Z,20.73
2022-08-26T21:54:00.209Z,20.82
2022-08-26T21:56:29.384Z,20.77
2022-08-26T21:58:56.817Z,20.49
2022-08-26T22:01:27.056Z,20.52
2022-08-26T22:03:54.408Z,20.62
2022-08-26T22:06:23.742Z,20.72
2022-08-26T22:08:51.331Z,20.73
2022-08-26T22:11:18.819Z,20.59
2022-08-26T22:13:46.895Z,20.47
2022-08-26T22:16:13.737Z,20.47
2022-08-26T22:18:43.752Z,20.41
2022-08-26T22:21:13.140Z,20.23
2022-08-26T22:23:40.489Z,20.08
2022-08-26T22:26:09.292Z,19.97
2022-08-26T22:28:36.310Z,20.02
2022-08-26T22:31:03.012Z,20.17
2022-08-26T22:33:29.755Z,20.12
2022-08-26T22:35:56.439Z,20.07
2022-08-26T22:38:23.822Z,19.94
2022-08-26T22:40:57.316Z,20.04
2022-08-26T22:43:25.549Z,20.10
2022-08-26T22:45:52.984Z,20.08
2022-08-26T22:48:22.226Z,20.07
2022-08-26T22:50:50.108Z,20.15
2022-08-26T22:53:18.078Z,20.11
2022-08-26T22:55:46.242Z,20.17
2022-08-26T22:58:15.317Z,20.19
2022-08-26T23:00:43.668Z,20.24
2022-08-26T23:03:10.954Z,20.33
2022-08-26T23:05:38.953Z,20.26
2022-08-26T23:08:07.489Z,20.23
2022-08-26T23:10:34.381Z,20.17
2022-08-26T23:13:01.684Z,20.22
2022-08-26T23:15:28.271Z,20.24
2022-08-26T23:17:58.571Z,20.19
2022-08-26T23:20:26.918Z,20.09
2022-08-26T23:22:54.218Z,20.11
2022-08-26T23:25:21.796Z,19.90
2022-08-26T23:27:49.384Z,19.79
2022-08-26T23:30:20.273Z,19.61
2022-08-26T23:32:47.499Z,19.78
2022-08-26T23:35:14.856Z,19.88
2022-08-26T23:37:46.145Z,19.74
2022-08-26T23:40:27.933Z,19.90
2022-08-26T23:42:56.665Z,19.97
2022-08-26T23:45:24.651Z,20.06
2022-08-26T23:47:51.789Z,20.03
2022-08-26T23:50:20.793Z,20.00
2022-08-26T23:53:06.326Z,19.99
2022-08-26T23:55:35.225Z,19.84
2022-08-26T23:58:01.982Z,19.94
